createdAt,value
2022-12-04T08:03:11.837Z,2.19
2022-12-04T08:06:23.533Z,2.24
2022-12-04T08:09:33.286Z,2.16
2022-12-04T08:12:42.987Z,2.00
2022-12-04T08:15:52.859Z,1.99
2022-12-04T08:19:03.977Z,2.05
2022-12-04T08:22:13.768Z,2.11
2022-12-04T08:25:23.430Z,2.03
2022-12-04T08:28:33.651Z,2.10
2022-12-04T08:31:43.389Z,1.98
2022-12-04T08:34:56.095Z,2.02
2022-12-04T08:38:05.869Z,2.14
2022-12-04T08:41:17.346Z,2.06
2022-12-04T08:44:27.245Z,1.89
2022-12-04T08:47:36.933Z,1.99
2022-12-04T08:50:47.867Z,2.10
2022-12-04T08:54:00.561Z,2.13
2022-12-04T08:57:10.281Z,2.21
2022-12-04T09:00:20.639Z,2.13
2022-12-04T09:03:31.148Z,2.09
2022-12-04T09:06:42.557Z,2.09
2022-12-04T09:09:52.364Z,2.19
2022-12-04T09:13:02.291Z,2.29
2022-12-04T09:16:17.064Z,2.26
2022-12-04T09:19:26.767Z,2.25
2022-12-04T09:23:02.046Z,2.27
2022-12-04T09:26:19.693Z,2.13
2022-12-04T09:29:29.597Z,2.12
2022-12-04T09:32:39.674Z,2.11
2022-12-04T09:35:49.424Z,2.09
2022-12-04T09:39:00.366Z,2.14
2022-12-04T09:42:26.532Z,2.19
2022-12-04T09:45:45.256Z,2.15
2022-12-04T09:48:58.341Z,2.18
2022-12-04T09:52:21.821Z,2.16
2022-12-04T09:55:37.685Z,2.19
2022-12-04T09:58:52.739Z,2.13
2022-12-04T10:02:14.589Z,2.06
2022-12-04T10:05:35.045Z,2.08
2022-12-04T10:08:47.335Z,2.16
2022-12-04T10:12:08.709Z,2.11
2022-12-04T10:15:30.725Z,2.17
2022-12-04T10:18:49.880Z,2.33
2022-12-04T10:22:11.938Z,2.20
2022-12-04T10:25:24.066Z,2.15
2022-12-04T10:28:39.981Z,2.26
2022-12-04T10:31:54.200Z,2.44
2022-12-04T10:35:17.066Z,2.55
2022-12-04T10:38:34.694Z,2.60
2022-12-04T10:41:50.022Z,2.62
2022-12-04T10:45:01.216Z,2.71
2022-12-04T10:48:21.790Z,2.71
2022-12-04T10:51:39.441Z,2.61
2022-12-04T10:54:52.970Z,2.64
2022-12-04T10:58:03.581Z,2.79
2022-12-04T11:01:15.615Z,2.70
2022-12-04T11:04:27.586Z,2.67
2022-12-04T11:07:44.177Z,2.73
2022-12-04T11:10:58.252Z,2.84
2022-12-04T11:14:15.011Z,2.85
2022-12-04T11:17:26.001Z,2.73
2022-12-04T11:20:35.967Z,2.73
2022-12-04T11:23:48.772Z,2.70
2022-12-04T11:26:59.240Z,2.77
2022-12-04T11:30:11.739Z,2.70
2022-12-04T11:33:29.665Z,2.69
2022-12-04T11:36:41.911Z,2.69
2022-12-04T11:39:53.381Z,2.58
2022-12-04T11:43:06.211Z,2.63
2022-12-04T11:46:22.188Z,2.78
2022-12-04T11:49:34.056Z,2.87
2022-12-04T11:52:56.976Z,2.90
2022-12-04T11:56:18.171Z,2.85
2022-12-04T11:59:40.948Z,2.86
2022-12-04T12:03:03.676Z,2.76
2022-12-04T12:06:27.412Z,2.81
2022-12-04T12:09:45.275Z,2.88
2022-12-04T12:13:01.398Z,2.92
2022-12-04T12:16:20.395Z,3.01
2022-12-04T12:19:44.643Z,2.99
2022-12-04T12:23:16.922Z,2.97
2022-12-04T12:26:38.896Z,2.98
2022-12-04T12:30:01.065Z,2.99
2022-12-04T12:33:20.035Z,3.08
2022-12-04T12:36:40.008Z,3.08
2022-12-04T12:40:01.132Z,3.05
2022-12-04T12:43:15.601Z,3.08
2022-12-04T12:46:31.062Z,2.96
2022-12-04T12:49:48.695Z,2.97
2022-12-04T12:53:02.709Z,2.92
2022-12-04T12:56:14.962Z,2.95
2022-12-04T12:59:28.376Z,2.99
2022-12-04T13:02:44.121Z,2.99
2022-12-04T13:05:56.980Z,3.01
2022-12-04T13:09:16.551Z,2.99
2022-12-04T13:12:28.547Z,3.02
2022-12-04T13:15:42.646Z,2.97
2022-12-04T13:19:01.266Z,2.93
2022-12-04T13:22:19.431Z,2.93
2022-12-04T13:25:41.090Z,2.97
2022-12-04T13:28:58.495Z,2.99
2022-12-04T13:32:30.068Z,2.92
2022-12-04T13:36:03.112Z,2.96
2022-12-04T13:39:31.171Z,3.01
2022-12-04T13:42:41.078Z,3.02
2022-12-04T13:45:55.052Z,2.97
2022-12-04T13:49:10.266Z,2.89
2022-12-04T13:52:24.957Z,2.86
2022-12-04T13:55:37.271Z,2.89
2022-12-04T13:58:47.149Z,2.95
2022-12-04T14:02:06.459Z,2.95
2022-12-04T14:05:25.953Z,2.98
2022-12-04T14:08:40.959Z,2.91
2022-12-04T14:11:55.184Z,2.93
2022-12-04T14:15:07.643Z,2.96
2022-12-04T14:18:28.035Z,2.98
2022-12-04T14:21:41.957Z,2.89
2022-12-04T14:24:51.582Z,2.83
2022-12-04T14:28:01.713Z,2.81
2022-12-04T14:31:21.168Z,2.87
2022-12-04T14:34:33.999Z,2.93
2022-12-04T14:37:48.969Z,2.95
2022-12-04T14:40:59.032Z,2.89
2022-12-04T14:44:23.186Z,2.86
2022-12-04T14:47:43.776Z,2.81
2022-12-04T14:51:03.951Z,2.79
2022-12-04T14:54:22.123Z,2.81
2022-12-04T14:57:46.642Z,2.78
2022-12-04T15:00:59.020Z,2.77
2022-12-04T15:04:16.912Z,2.73
2022-12-04T15:07:32.210Z,2.76
2022-12-04T15:11:01.420Z,2.77
2022-12-04T15:14:15.054Z,2.62
2022-12-04T15:17:25.669Z,2.65
2022-12-04T15:20:43.148Z,2.72
2022-12-04T15:23:55.744Z,2.70
2022-12-04T15:27:08.006Z,2.74
2022-12-04T15:30:33.352Z,2.70
2022-12-04T15:33:47.051Z,2.69
2022-12-04T15:37:03.613Z,2.66
2022-12-04T15:40:22.947Z,2.65
2022-12-04T15:43:41.069Z,2.73
2022-12-04T15:46:52.383Z,2.78
2022-12-04T15:50:12.536Z,2.80
2022-12-04T15:53:28.742Z,2.84
2022-12-04T15:56:40.756Z,2.88
2022-12-04T15:59:53.083Z,2.84
2022-12-04T16:03:08.220Z,2.88
2022-12-04T16:06:21.860Z,2.82
2022-12-04T16:09:33.329Z,2.77
2022-12-04T16:12:54.876Z,2.81
2022-12-04T16:16:10.011Z,2.79
2022-12-04T16:19:29.810Z,2.79
2022-12-04T16:22:42.069Z,2.72
2022-12-04T16:25:53.783Z,2.65
2022-12-04T16:29:07.515Z,2.57
2022-12-04T16:32:21.528Z,2.56
2022-12-04T16:35:33.112Z,2.62
2022-12-04T16:38:44.648Z,2.71
2022-12-04T16:41:55.611Z,2.67
2022-12-04T16:45:24.516Z,2.58
2022-12-04T16:48:36.874Z,2.66
2022-12-04T16:51:50.531Z,2.73
2022-12-04T16:55:05.035Z,2.67
2022-12-04T16:58:16.985Z,2.71
2022-12-04T17:01:33.957Z,2.77
2022-12-04T17:04:44.543Z,2.69
2022-12-04T17:07:55.677Z,2.72
2022-12-04T17:11:05.797Z,2.72
2022-12-04T17:14:18.387Z,2.70
2022-12-04T17:17:29.381Z,2.73
2022-12-04T17:20:41.690Z,2.78
2022-12-04T17:23:52.043Z,2.78
2022-12-04T17:27:02.370Z,2.83
2022-12-04T17:30:13.668Z,2.90
2022-12-04T17:33:25.588Z,2.83
2022-12-04T17:36:35.696Z,2.85
2022-12-04T17:39:45.488Z,2.92
2022-12-04T17:42:55.316Z,2.90
2022-12-04T17:46:10.529Z,2.93
2022-12-04T17:49:21.970Z,2.83
2022-12-04T17:52:31.855Z,2.81
2022-12-04T17:55:41.923Z,2.84
2022-12-04T17:58:52.191Z,2.85
2022-12-04T18:02:03.011Z,2.89
2022-12-04T18:05:15.030Z,2.91
2022-12-04T18:08:28.792Z,2.78
2022-12-04T18:11:41.814Z,2.71
2022-12-04T18:14:53.184Z,2.67
2022-12-04T18:18:04.383Z,2.61
2022-12-04T18:21:16.951Z,2.63
2022-12-04T18:24:28.920Z,2.61
2022-12-04T18:27:41.964Z,2.67
2022-12-04T18:30:54.111Z,2.74
2022-12-04T18:34:07.519Z,2.79
2022-12-04T18:37:20.377Z,2.87
2022-12-04T18:40:31.755Z,2.89
2022-12-04T18:43:45.006Z,2.90
2022-12-04T18:46:56.241Z,2.94
2022-12-04T18:50:08.453Z,2.95
2022-12-04T18:53:21.396Z,2.91
2022-12-04T18:56:35.400Z,2.92
2022-12-04T18:59:46.699Z,2.93
2022-12-04T19:02:58.984Z,2.99
2022-12-04T19:06:12.674Z,3.01
2022-12-04T19:12:59.494Z,3.05
2022-12-04T19:16:13.908Z,3.01
2022-12-04T19:19:30.125Z,3.02
2022-12-04T19:22:42.938Z,3.03
2022-12-04T19:25:59.967Z,3.03
2022-12-04T19:29:14.392Z,3.06
2022-12-04T19:32:25.873Z,3.04
2022-12-04T19:35:37.104Z,2.99
2022-12-04T19:38:48.539Z,2.94
2022-12-04T19:42:01.246Z,2.98
2022-12-04T19:45:13.195Z,2.93
2022-12-04T19:48:27.342Z,2.85
2022-12-04T19:51:40.065Z,2.80
2022-12-04T19:54:51.257Z,2.82
2022-12-04T19:58:04.323Z,2.78
2022-12-04T20:01:17.341Z,2.80
2022-12-04T20:04:28.777Z,2.88
2022-12-04T20:07:40.180Z,2.92
2022-12-04T20:10:51.846Z,2.90
2022-12-04T20:14:06.448Z,2.97
2022-12-04T20:17:17.866Z,3.05
2022-12-04T20:20:29.198Z,3.00
2022-12-04T20:23:40.923Z,3.05
2022-12-04T20:26:52.350Z,3.06
2022-12-04T20:30:05.204Z,3.05
2022-12-04T20:33:16.665Z,3.06
2022-12-04T20:36:30.022Z,3.11
2022-12-04T20:39:41.302Z,3.16
2022-12-04T20:42:53.270Z,3.18
2022-12-04T20:46:15.543Z,3.22
2022-12-04T20:49:27.026Z,3.21
2022-12-04T20:52:38.348Z,3.20
